Time;durP1;ratioP1;P1;durP2;ratioP2;P2;SDS_P1;SDS_P2;PMS_P1;PMS_P2;Temp;Humidity;BMP_temperature;BMP_pressure;BME280_temperature;BME280_humidity;BME280_pressure;Samples;Min_cycle;Max_cycle;Signal;HPM_P1;HPM_P2
2023/10/04 00:04:43;;;;;;;3.25;2.15;;;;;;;12.40;100.00;98447.19;10472924;28;20048;-42
2023/10/04 00:09:45;;;;;;;4.00;2.28;;;;;;;12.54;100.00;98436.59;10499609;22;20080;-34
2023/10/04 00:14:49;;;;;;;3.83;2.42;;;;;;;12.67;100.00;98413.41;10499976;28;20048;-34
2023/10/04 00:19:54;;;;;;;3.83;2.28;;;;;;;12.94;100.00;98396.09;10522949;28;20609;-35
2023/10/04 00:24:57;;;;;;;5.63;2.53;;;;;;;13.13;100.00;98378.91;10497995;22;20409;-45
2023/10/04 00:29:59;;;;;;;4.97;2.72;;;;;;;13.31;100.00;98368.38;10449633;28;20049;-46
2023/10/04 00:35:10;;;;;;;5.38;2.95;;;;;;;13.45;100.00;98341.19;10431837;28;20535;-44
2023/10/04 00:40:15;;;;;;;6.57;3.60;;;;;;;13.70;100.00;98335.47;10449377;28;20041;-46
2023/10/04 00:45:19;;;;;;;4.78;2.85;;;;;;;13.83;100.00;98335.00;10412813;28;20048;-44
2023/10/04 00:50:29;;;;;;;7.43;3.45;;;;;;;13.88;100.00;98329.22;10448817;28;20053;-44
2023/10/04 00:55:39;;;;;;;6.03;3.25;;;;;;;13.98;100.00;98316.81;10415802;28;20041;-44
2023/10/04 01:00:45;;;;;;;5.53;2.92;;;;;;;14.18;100.00;98304.66;10446328;28;20044;-45
2023/10/04 01:05:49;;;;;;;6.10;3.55;;;;;;;14.34;100.00;98292.75;10436882;28;20567;-48
2023/10/04 01:10:54;;;;;;;5.25;3.30;;;;;;;14.46;100.00;98278.84;10417465;28;20421;-44
2023/10/04 01:15:57;;;;;;;6.95;3.50;;;;;;;14.55;100.00;98262.06;10405187;28;20460;-45
2023/10/04 01:21:00;;;;;;;6.88;2.80;;;;;;;14.65;100.00;98259.50;10406667;28;20414;-45
2023/10/04 01:26:02;;;;;;;5.35;3.00;;;;;;;14.74;100.00;98253.72;10417957;28;20057;-45
2023/10/04 01:31:05;;;;;;;4.22;2.42;;;;;;;14.79;100.00;98247.94;10446593;28;20425;-46
2023/10/04 01:36:08;;;;;;;5.25;2.80;;;;;;;14.83;100.00;98236.94;10413991;28;20058;-44
2023/10/04 01:41:11;;;;;;;5.80;3.13;;;;;;;14.89;100.00;98235.47;10386981;28;20045;-47
2023/10/04 01:46:14;;;;;;;5.90;2.60;;;;;;;14.90;100.00;98234.28;10420396;28;20069;-46
2023/10/04 01:51:16;;;;;;;5.18;3.20;;;;;;;15.01;100.00;98227.00;10442962;28;20042;-44
2023/10/04 01:56:20;;;;;;;5.57;2.60;;;;;;;15.00;100.00;98217.91;10407720;28;20046;-44
2023/10/04 02:01:23;;;;;;;4.80;2.50;;;;;;;15.10;100.00;98216.50;10406006;28;20042;-44
2023/10/04 02:06:25;;;;;;;7.38;2.92;;;;;;;15.08;100.00;98218.81;10411021;28;20527;-45
2023/10/04 02:11:28;;;;;;;6.50;2.70;;;;;;;15.14;100.00;98206.31;10446227;28;20057;-46
2023/10/04 02:16:31;;;;;;;5.55;2.90;;;;;;;15.12;100.00;98205.09;10445548;28;20420;-46
2023/10/04 02:21:34;;;;;;;7.55;2.60;;;;;;;15.23;100.00;98206.81;10465245;22;20076;-34
2023/10/04 02:26:37;;;;;;;7.28;3.25;;;;;;;15.20;100.00;98188.25;10477466;28;20036;-34
2023/10/04 02:31:41;;;;;;;6.13;2.80;;;;;;;15.22;100.00;98187.88;10484240;28;20047;-35
2023/10/04 02:36:44;;;;;;;6.70;3.17;;;;;;;15.24;100.00;98186.31;10493396;22;20061;-40
2023/10/04 02:41:48;;;;;;;8.18;3.15;;;;;;;15.28;100.00;98186.41;10483447;28;20041;-40
2023/10/04 02:46:50;;;;;;;5.80;2.97;;;;;;;15.35;100.00;98169.91;10484699;28;20041;-40
2023/10/04 02:51:54;;;;;;;8.40;3.03;;;;;;;15.31;99.90;98152.50;10484212;28;20416;-39
2023/10/04 02:57:03;;;;;;;6.60;3.28;;;;;;;15.29;100.00;98163.13;10484926;28;20524;-40
2023/10/04 03:02:07;;;;;;;8.15;3.00;;;;;;;15.41;99.23;98151.81;10483008;28;20037;-40
2023/10/04 03:07:09;;;;;;;6.63;3.03;;;;;;;15.54;98.36;98133.06;10484773;28;20041;-39
2023/10/04 03:12:15;;;;;;;4.50;2.70;;;;;;;15.55;97.25;98121.63;10479603;28;20045;-39
2023/10/04 03:17:19;;;;;;;10.52;3.40;;;;;;;15.66;96.09;98119.81;10483807;28;20055;-39
2023/10/04 03:22:23;;;;;;;5.68;2.83;;;;;;;15.82;94.48;98111.31;10482661;28;20455;-40
2023/10/04 03:27:27;;;;;;;5.65;2.75;;;;;;;15.83;94.01;98096.31;10482454;28;20369;-39
2023/10/04 03:32:30;;;;;;;6.70;2.78;;;;;;;15.83;93.38;98098.28;10483937;28;20045;-38
2023/10/04 03:37:39;;;;;;;5.97;2.92;;;;;;;15.85;93.13;98085.69;10482632;28;20052;-39
2023/10/04 03:42:42;;;;;;;7.13;3.20;;;;;;;15.84;93.51;98075.00;10496887;28;20422;-40
2023/10/04 03:47:47;;;;;;;5.57;2.80;;;;;;;15.78;93.10;98071.75;10463719;28;20420;-39
2023/10/04 03:52:52;;;;;;;6.07;2.60;;;;;;;15.74;93.31;98067.38;10446553;28;20040;-40
2023/10/04 03:57:55;;;;;;;5.00;3.03;;;;;;;15.75;93.31;98050.41;10436215;28;20041;-39
2023/10/04 04:02:59;;;;;;;6.75;3.35;;;;;;;15.79;93.24;98045.69;10467625;28;20045;-38
2023/10/04 04:08:03;;;;;;;4.00;2.58;;;;;;;15.79;92.80;98034.63;10507055;28;20036;-38
2023/10/04 04:13:06;;;;;;;6.53;2.42;;;;;;;15.84;92.28;98025.22;10453520;28;20193;-38
2023/10/04 04:18:16;;;;;;;6.75;2.40;;;;;;;16.00;91.99;98024.97;10464172;28;20048;-39
2023/10/04 04:23:19;;;;;;;5.85;3.25;;;;;;;15.88;92.07;98024.06;10473731;28;20048;-38
2023/10/04 04:28:21;;;;;;;5.35;2.30;;;;;;;15.81;91.87;98026.78;10484058;28;20033;-40
2023/10/04 04:33:28;;;;;;;4.57;2.40;;;;;;;16.01;91.45;98021.03;10452706;28;20037;-39
2023/10/04 04:38:37;;;;;;;4.88;2.33;;;;;;;15.87;90.99;98013.41;10441059;28;20528;-39
2023/10/04 04:43:43;;;;;;;4.70;2.38;;;;;;;15.86;91.14;98001.53;10450732;28;20428;-39
2023/10/04 04:48:46;;;;;;;4.40;2.40;;;;;;;15.88;91.42;97999.19;10460275;28;20050;-40
2023/10/04 04:53:53;;;;;;;7.33;3.03;;;;;;;15.91;91.15;98011.44;10481378;23;20057;-35
2023/10/04 04:59:07;;;;;;;6.83;2.30;;;;;;;15.75;91.59;98010.91;10513909;28;20055;-35
2023/10/04 05:04:10;;;;;;;3.83;1.92;;;;;;;15.67;91.54;98004.50;10493448;28;20044;-36
2023/10/04 05:09:12;;;;;;;7.38;2.10;;;;;;;15.78;91.20;98001.84;10507899;22;20515;-36
2023/10/04 05:14:16;;;;;;;4.80;2.20;;;;;;;15.95;89.21;97979.88;10475569;28;20045;-36
2023/10/04 05:19:18;;;;;;;4.63;2.35;;;;;;;15.94;88.93;97975.53;10478100;28;20045;-37
2023/10/04 05:24:21;;;;;;;6.03;2.38;;;;;;;15.89;89.63;97984.19;10503307;22;20075;-46
2023/10/04 05:29:23;;;;;;;5.90;2.30;;;;;;;15.79;89.51;97964.72;10516922;28;20438;-43
2023/10/04 05:34:25;;;;;;;4.75;2.20;;;;;;;15.68;86.86;97972.91;10519289;28;20049;-45
2023/10/04 05:39:28;;;;;;;3.53;1.77;;;;;;;15.65;86.23;97968.94;10507810;22;20440;-34
2023/10/04 05:44:30;;;;;;;3.40;1.80;;;;;;;15.60;85.55;97954.66;10419173;28;20420;-35
2023/10/04 05:49:33;;;;;;;3.10;1.58;;;;;;;15.54;83.94;97962.47;10446919;28;20057;-35
2023/10/04 05:54:36;;;;;;;2.90;1.40;;;;;;;15.45;82.81;97975.81;10482391;22;20049;-46
2023/10/04 05:59:39;;;;;;;2.60;1.50;;;;;;;15.35;82.30;97971.75;10511742;28;20575;-46
2023/10/04 06:04:42;;;;;;;2.13;1.52;;;;;;;15.32;81.77;97977.25;10519368;28;20032;-46
2023/10/04 06:09:45;;;;;;;3.20;1.30;;;;;;;15.33;82.18;97987.91;10495518;22;20056;-39
2023/10/04 06:14:47;;;;;;;2.22;1.00;;;;;;;15.27;81.04;97986.69;10444280;28;20045;-40
2023/10/04 06:19:54;;;;;;;2.50;1.10;;;;;;;14.91;82.56;97992.91;10445129;28;20695;-40
2023/10/04 06:24:56;;;;;;;2.23;0.57;;;;;;;14.57;81.57;97998.34;10444559;28;20460;-40
2023/10/04 06:29:58;;;;;;;1.30;0.65;;;;;;;14.45;82.06;98006.84;10444157;28;20571;-40
2023/10/04 06:35:01;;;;;;;1.90;0.50;;;;;;;14.39;83.04;98000.81;10441561;28;20044;-39
2023/10/04 06:40:10;;;;;;;0.95;0.50;;;;;;;14.29;83.91;98001.44;10442620;28;20045;-39
2023/10/04 06:45:16;;;;;;;2.08;0.70;;;;;;;14.06;83.40;97997.94;10443110;28;20041;-40
2023/10/04 06:50:32;;;;;;;0.38;0.38;;;;;;;13.79;84.61;98002.56;10438557;28;20420;-40
2023/10/04 06:55:34;;;;;;;0.90;0.45;;;;;;;13.60;85.47;98000.66;10441249;28;20045;-40
2023/10/04 07:00:38;;;;;;;1.33;0.50;;;;;;;13.36;85.99;98000.97;10451411;28;20057;-40
2023/10/04 07:05:40;;;;;;;0.28;0.28;;;;;;;13.14;86.61;98003.25;10421362;28;20045;-40
2023/10/04 07:10:44;;;;;;;0.30;0.30;;;;;;;13.06;87.61;98014.50;10439076;28;20057;-39
2023/10/04 07:15:46;;;;;;;0.17;0.17;;;;;;;13.02;87.52;98002.63;10437312;28;20045;-39
2023/10/04 07:20:49;;;;;;;0.90;0.17;;;;;;;12.89;85.84;98019.28;10443160;28;20429;-39
2023/10/04 07:25:51;;;;;;;2.10;0.85;;;;;;;12.76;86.37;98028.00;10436707;28;20511;-40
2023/10/04 07:30:54;;;;;;;1.30;0.40;;;;;;;12.58;86.40;98028.41;10432549;28;20533;-41
2023/10/04 07:35:56;;;;;;;0.30;0.30;;;;;;;12.42;86.90;98021.31;10432957;28;20042;-40
2023/10/04 07:40:59;;;;;;;0.20;0.20;;;;;;;12.34;87.03;98018.41;10401925;28;20045;-43
2023/10/04 07:46:01;;;;;;;0.47;0.20;;;;;;;12.19;87.38;98038.47;10403595;28;20650;-40
2023/10/04 07:51:04;;;;;;;0.20;0.20;;;;;;;12.13;87.73;98050.88;10453250;28;20037;-41
2023/10/04 07:56:08;;;;;;;0.30;0.30;;;;;;;12.05;90.66;98049.09;10445927;28;20481;-41
2023/10/04 08:01:13;;;;;;;0.25;0.22;;;;;;;11.69;93.05;98081.09;10442354;28;20508;-41
2023/10/04 08:06:16;;;;;;;1.33;0.20;;;;;;;11.50;96.03;98089.22;10438280;28;20038;-39
2023/10/04 08:11:18;;;;;;;0.88;0.30;;;;;;;11.37;97.23;98112.34;10441807;28;20076;-41
2023/10/04 08:16:21;;;;;;;0.40;0.20;;;;;;;11.07;96.39;98137.34;10440765;28;20037;-41
2023/10/04 08:21:25;;;;;;;0.20;0.20;;;;;;;10.96;97.14;98162.88;10421964;28;20494;-42
2023/10/04 08:26:28;;;;;;;0.30;0.20;;;;;;;10.68;96.33;98168.25;10430887;28;20038;-41
2023/10/04 08:31:32;;;;;;;0.38;0.25;;;;;;;10.56;96.60;98186.28;10440286;28;20457;-41
2023/10/04 08:36:37;;;;;;;1.10;0.28;;;;;;;10.44;97.35;98197.25;10442145;28;20037;-41
2023/10/04 08:41:40;;;;;;;0.63;0.20;;;;;;;10.38;97.24;98231.47;10448778;28;20048;-41
2023/10/04 08:46:43;;;;;;;0.20;0.20;;;;;;;10.41;96.48;98235.47;10448424;28;20045;-41
2023/10/04 08:51:53;;;;;;;0.20;0.10;;;;;;;10.14;94.83;98237.66;10442692;28;20044;-41
2023/10/04 08:56:58;;;;;;;1.20;0.30;;;;;;;10.13;94.06;98251.69;10448555;28;20052;-40
2023/10/04 09:02:02;;;;;;;0.38;0.20;;;;;;;10.10;92.17;98282.53;10448328;28;20520;-40
2023/10/04 09:07:05;;;;;;;0.10;0.10;;;;;;;10.00;90.27;98302.09;10442405;28;20416;-40
2023/10/04 09:12:08;;;;;;;0.30;0.30;;;;;;;9.85;89.34;98323.47;10414353;28;20049;-40
2023/10/04 09:17:14;;;;;;;1.48;0.30;;;;;;;9.82;89.90;98339.75;10447714;28;20053;-39
2023/10/04 09:22:18;;;;;;;0.22;0.20;;;;;;;9.78;89.97;98368.97;10447449;28;20093;-40
2023/10/04 09:27:21;;;;;;;0.20;0.10;;;;;;;9.68;89.98;98375.59;10481185;28;20048;-41
2023/10/04 09:32:35;;;;;;;0.68;0.32;;;;;;;9.45;92.33;98407.94;10488624;28;20515;-40
2023/10/04 09:37:42;;;;;;;0.17;0.08;;;;;;;9.42;92.62;98429.69;10450789;28;20037;-41
2023/10/04 09:42:52;;;;;;;0.05;0.05;;;;;;;9.46;91.43;98433.38;10446984;28;20053;-41
2023/10/04 09:47:54;;;;;;;0.00;0.00;;;;;;;9.37;92.12;98460.75;10446084;28;20067;-42
2023/10/04 09:52:57;;;;;;;0.20;0.20;;;;;;;9.26;94.76;98487.69;10447000;28;20046;-41
2023/10/04 09:58:00;;;;;;;0.28;0.28;;;;;;;9.22;96.46;98494.13;10446688;28;20044;-41
2023/10/04 10:03:04;;;;;;;0.10;0.10;;;;;;;9.12;97.18;98500.75;10476199;28;20041;-41
2023/10/04 10:08:08;;;;;;;0.20;0.20;;;;;;;9.00;97.45;98517.00;10486627;28;20045;-42
2023/10/04 10:13:12;;;;;;;0.10;0.10;;;;;;;8.94;98.78;98531.97;10452074;28;20048;-39
2023/10/04 10:18:17;;;;;;;0.63;0.25;;;;;;;9.06;98.80;98534.88;10444116;28;20398;-40
2023/10/04 10:23:20;;;;;;;0.20;0.20;;;;;;;8.96;98.24;98549.66;10440169;28;20124;-39
2023/10/04 10:28:23;;;;;;;0.10;0.10;;;;;;;8.90;97.30;98574.78;10438692;28;20041;-39
2023/10/04 10:33:25;;;;;;;0.38;0.20;;;;;;;8.96;96.67;98585.22;10444602;28;20715;-41
2023/10/04 10:38:45;;;;;;;1.00;0.10;;;;;;;9.04;96.52;98611.00;10444492;28;20059;-42
2023/10/04 10:44:19;;;;;;;0.20;0.20;;;;;;;8.86;96.66;98628.50;10434392;28;20049;-42
2023/10/04 10:49:52;;;;;;;0.30;0.20;;;;;;;8.68;96.22;98647.59;10440876;28;20033;-42
2023/10/04 10:54:57;;;;;;;0.10;0.10;;;;;;;8.52;95.38;98684.69;10444205;28;20044;-42
2023/10/04 11:05:21;;;;;;;0.45;0.25;;;;;;;8.39;95.29;98740.25;10443786;28;20048;-42
2023/10/04 11:10:25;;;;;;;0.50;0.22;;;;;;;8.23;93.80;98772.59;10443475;28;20061;-41
2023/10/04 11:15:27;;;;;;;0.30;0.30;;;;;;;8.24;93.80;98795.25;10443672;28;20041;-41
2023/10/04 11:20:32;;;;;;;0.80;0.40;;;;;;;8.34;94.60;98814.19;10443157;28;20026;-42
2023/10/04 11:25:36;;;;;;;0.52;0.30;;;;;;;8.31;94.91;98839.34;10443024;28;20041;-41
2023/10/04 11:30:39;;;;;;;0.70;0.30;;;;;;;8.23;94.36;98853.75;10442981;28;20045;-41
2023/10/04 11:35:43;;;;;;;0.30;0.30;;;;;;;8.06;93.08;98865.34;10442832;28;20059;-41
2023/10/04 11:40:49;;;;;;;0.40;0.30;;;;;;;8.01;91.78;98904.50;10443244;28;20136;-41
2023/10/04 11:46:01;;;;;;;0.63;0.43;;;;;;;8.04;92.72;98923.03;10441015;28;20038;-41
2023/10/04 11:51:04;;;;;;;0.95;0.40;;;;;;;7.90;91.05;98957.72;10434265;28;20049;-41
2023/10/04 11:56:09;;;;;;;0.57;0.45;;;;;;;7.88;92.00;98970.88;10424872;28;20052;-40
2023/10/04 12:01:17;;;;;;;0.90;0.70;;;;;;;7.94;93.16;98988.78;10442295;28;20394;-41
2023/10/04 12:06:24;;;;;;;0.47;0.35;;;;;;;7.91;93.11;99007.69;10437689;28;20037;-40
2023/10/04 12:11:35;;;;;;;0.90;0.43;;;;;;;8.03;93.68;99019.75;10448416;28;20513;-41
2023/10/04 12:16:37;;;;;;;0.63;0.30;;;;;;;8.18;94.98;99042.41;10430010;28;20536;-41
2023/10/04 12:21:39;;;;;;;1.52;0.38;;;;;;;8.06;92.20;99054.63;10425901;28;20037;-41
2023/10/04 12:26:42;;;;;;;0.32;0.32;;;;;;;8.25;90.59;99087.31;10449769;28;20049;-42
2023/10/04 12:31:44;;;;;;;0.70;0.50;;;;;;;8.30;87.85;99106.34;10448063;28;20048;-43
2023/10/04 12:36:46;;;;;;;1.27;0.50;;;;;;;8.38;88.36;99124.00;10449871;28;20049;-40
2023/10/04 12:41:49;;;;;;;1.50;0.70;;;;;;;8.30;88.93;99130.94;10444917;28;20037;-41
2023/10/04 12:46:52;;;;;;;0.63;0.52;;;;;;;8.35;89.90;99141.81;10447032;28;20526;-42
2023/10/04 12:51:55;;;;;;;0.82;0.52;;;;;;;8.28;91.11;99162.41;10444026;28;20037;-42
2023/10/04 12:56:58;;;;;;;2.83;1.02;;;;;;;8.25;91.18;99174.78;10443105;28;20045;-41
2023/10/04 13:02:00;;;;;;;0.50;0.50;;;;;;;8.26;92.29;99191.97;10443058;28;20042;-41
2023/10/04 13:07:03;;;;;;;2.63;0.80;;;;;;;8.36;92.45;99210.97;10432382;28;20041;-42
2023/10/04 13:12:06;;;;;;;0.80;0.50;;;;;;;8.23;91.58;99226.19;10445905;28;20513;-41
2023/10/04 13:17:11;;;;;;;0.90;0.55;;;;;;;8.26;91.07;99241.97;10445771;28;20124;-41
2023/10/04 13:22:13;;;;;;;1.00;0.70;;;;;;;8.33;89.55;99258.81;10444573;28;20124;-40
2023/10/04 13:27:15;;;;;;;1.42;0.55;;;;;;;8.38;89.00;99271.59;10443315;28;20071;-40
2023/10/04 13:32:18;;;;;;;0.98;0.50;;;;;;;8.33;88.83;99290.75;10439944;28;20041;-40
2023/10/04 13:37:21;;;;;;;0.90;0.50;;;;;;;8.33;88.01;99304.44;10440447;28;20550;-39
2023/10/04 13:42:24;;;;;;;1.83;0.90;;;;;;;8.39;88.71;99323.22;10443014;28;20040;-42
2023/10/04 13:47:26;;;;;;;2.33;0.88;;;;;;;8.37;89.73;99330.91;10443392;28;20044;-40
2023/10/04 13:52:28;;;;;;;2.00;0.90;;;;;;;8.36;90.59;99340.22;10443835;28;20049;-41
2023/10/04 13:57:32;;;;;;;0.68;0.50;;;;;;;8.34;90.37;99358.03;10443747;28;20040;-43
2023/10/04 14:02:34;;;;;;;0.47;0.47;;;;;;;8.43;89.73;99373.44;10446124;28;20037;-43
2023/10/04 14:07:37;;;;;;;0.60;0.47;;;;;;;8.51;90.55;99380.19;10430332;28;20052;-40
2023/10/04 14:12:39;;;;;;;0.45;0.40;;;;;;;8.50;90.04;99386.72;10420419;28;20046;-40
2023/10/04 14:17:41;;;;;;;0.73;0.50;;;;;;;8.67;88.97;99410.78;10435056;28;20053;-41
2023/10/04 14:22:45;;;;;;;0.82;0.50;;;;;;;8.74;88.46;99427.66;10424342;28;20030;-41
2023/10/04 14:27:48;;;;;;;0.90;0.50;;;;;;;8.73;87.95;99440.53;10437366;28;20045;-40
2023/10/04 14:32:51;;;;;;;0.85;0.70;;;;;;;8.73;88.03;99454.19;10425506;28;20037;-40
2023/10/04 14:37:55;;;;;;;0.80;0.40;;;;;;;8.80;87.58;99472.13;10421580;28;20041;-41
2023/10/04 14:42:58;;;;;;;0.98;0.50;;;;;;;8.75;87.06;99478.50;10443937;28;20045;-41
2023/10/04 14:48:02;;;;;;;1.05;0.65;;;;;;;8.70;88.27;99484.06;10444967;28;20052;-41
2023/10/04 14:53:05;;;;;;;1.88;0.47;;;;;;;8.75;88.59;99495.72;10439410;28;20029;-41
2023/10/04 14:58:07;;;;;;;0.88;0.70;;;;;;;8.92;88.65;99508.06;10439131;28;20044;-41
2023/10/04 15:03:11;;;;;;;1.75;0.63;;;;;;;8.84;88.72;99506.78;10436156;28;20038;-40
2023/10/04 15:08:14;;;;;;;2.05;0.30;;;;;;;8.92;89.26;99529.94;10434360;28;20037;-40
2023/10/04 15:13:17;;;;;;;0.50;0.50;;;;;;;8.94;89.00;99534.00;10431746;28;20044;-40
2023/10/04 15:18:20;;;;;;;1.05;0.55;;;;;;;8.98;89.57;99536.97;10417597;28;20521;-40
2023/10/04 15:23:23;;;;;;;1.20;0.90;;;;;;;9.05;89.50;99531.94;10434549;28;20064;-40
2023/10/04 15:28:26;;;;;;;0.60;0.50;;;;;;;9.04;89.85;99542.06;10426303;28;20049;-41
2023/10/04 15:33:29;;;;;;;1.20;0.60;;;;;;;9.03;90.02;99554.13;10440579;28;20048;-41
2023/10/04 15:38:31;;;;;;;1.45;0.80;;;;;;;8.88;89.64;99565.31;10429642;28;20057;-42
2023/10/04 15:43:34;;;;;;;1.52;0.70;;;;;;;8.85;90.28;99565.06;10441170;28;20036;-40
2023/10/04 15:48:38;;;;;;;0.60;0.60;;;;;;;8.85;91.17;99578.72;10436345;28;20037;-41
2023/10/04 15:53:40;;;;;;;0.75;0.52;;;;;;;8.84;90.63;99577.09;10448114;28;20037;-41
2023/10/04 15:58:44;;;;;;;3.28;1.33;;;;;;;8.81;90.97;99588.66;10454810;28;20037;-42
2023/10/04 16:03:47;;;;;;;1.83;0.95;;;;;;;8.88;91.37;99605.53;10443707;28;20179;-41
2023/10/04 16:08:50;;;;;;;2.40;1.15;;;;;;;8.85;91.46;99598.72;10569125;22;20052;-45
2023/10/04 16:13:53;;;;;;;4.50;1.20;;;;;;;8.81;91.57;99610.53;10498043;28;20503;-47
2023/10/04 16:18:57;;;;;;;3.45;1.60;;;;;;;8.80;92.61;99606.16;10505272;28;20040;-44
2023/10/04 16:23:59;;;;;;;4.65;2.10;;;;;;;8.72;93.09;99610.38;10503580;22;20052;-46
2023/10/04 16:29:03;;;;;;;4.25;1.98;;;;;;;8.79;93.31;99607.28;10498631;28;20428;-47
2023/10/04 16:34:06;;;;;;;3.95;2.15;;;;;;;8.94;92.26;99618.00;10470894;28;20033;-46
2023/10/04 16:39:08;;;;;;;3.65;1.95;;;;;;;8.90;91.97;99627.94;10500002;22;20063;-36
2023/10/04 16:44:14;;;;;;;2.95;1.75;;;;;;;9.03;92.29;99636.22;10480659;28;20033;-36
2023/10/04 16:49:18;;;;;;;3.17;1.42;;;;;;;9.06;91.86;99652.03;10478563;28;20044;-38
2023/10/04 16:54:20;;;;;;;1.95;0.93;;;;;;;9.27;91.92;99665.44;10458573;22;20069;-43
2023/10/04 16:59:23;;;;;;;2.30;1.40;;;;;;;9.42;90.99;99669.88;10418756;28;20425;-42
2023/10/04 17:04:25;;;;;;;2.50;1.55;;;;;;;9.69;90.54;99667.22;10430000;28;20045;-42
2023/10/04 17:09:27;;;;;;;1.95;1.30;;;;;;;9.76;89.16;99677.81;10535182;22;20052;-38
2023/10/04 17:14:30;;;;;;;1.92;1.10;;;;;;;9.66;89.20;99678.78;10526488;28;20532;-37
2023/10/04 17:19:32;;;;;;;2.33;1.27;;;;;;;9.69;89.22;99678.19;10527402;28;20154;-37
2023/10/04 17:24:35;;;;;;;2.33;1.27;;;;;;;9.84;89.54;99672.47;10450844;22;20053;-48
2023/10/04 17:29:37;;;;;;;2.17;1.58;;;;;;;10.08;88.15;99679.75;10423485;28;20452;-47
2023/10/04 17:34:42;;;;;;;1.60;1.10;;;;;;;10.18;87.99;99690.50;10427520;28;20036;-46
2023/10/04 17:39:45;;;;;;;2.45;1.20;;;;;;;10.39;87.12;99691.78;10403691;28;20044;-46
2023/10/04 17:44:47;;;;;;;1.67;0.93;;;;;;;10.10;87.54;99692.03;10423782;28;20052;-46
2023/10/04 17:49:52;;;;;;;2.40;0.90;;;;;;;10.17;89.72;99700.66;10408276;23;20049;-42
2023/10/04 17:54:57;;;;;;;1.67;0.90;;;;;;;9.82;91.16;99704.81;10466482;28;20543;-42
2023/10/04 18:00:01;;;;;;;2.80;0.73;;;;;;;10.25;91.14;99712.91;10485420;28;20048;-43
2023/10/04 18:05:04;;;;;;;1.60;0.77;;;;;;;10.46;89.53;99714.16;10465790;22;20096;-39
2023/10/04 18:10:10;;;;;;;1.25;0.70;;;;;;;10.62;88.43;99713.88;10443007;28;20053;-40
2023/10/04 18:15:16;;;;;;;0.98;0.80;;;;;;;10.28;89.51;99706.81;10435383;28;20049;-39
2023/10/04 18:20:19;;;;;;;1.52;0.95;;;;;;;10.02;92.99;99711.06;10456501;22;20020;-34
2023/10/04 18:25:21;;;;;;;1.40;0.80;;;;;;;9.83;95.04;99711.13;10446500;22;20068;-40
2023/10/04 18:30:24;;;;;;;1.55;1.00;;;;;;;9.86;94.85;99711.34;10431187;28;20045;-40
2023/10/04 18:35:26;;;;;;;2.08;1.30;;;;;;;9.83;95.49;99711.13;10418340;28;20430;-39
2023/10/04 18:40:28;;;;;;;2.58;1.15;;;;;;;9.63;95.81;99723.22;10408088;23;20065;-33
2023/10/04 18:45:31;;;;;;;1.45;1.00;;;;;;;9.81;97.88;99718.81;10381716;28;20037;-35
2023/10/04 18:50:33;;;;;;;1.20;0.90;;;;;;;9.81;97.42;99716.91;10384186;28;20436;-33
2023/10/04 18:55:40;;;;;;;1.83;1.10;;;;;;;9.69;95.97;99716.53;10473676;23;20057;-43
2023/10/04 19:00:43;;;;;;;1.95;0.90;;;;;;;9.53;96.61;99731.56;10444535;28;20417;-42
2023/10/04 19:05:52;;;;;;;1.00;0.90;;;;;;;9.88;97.47;99719.25;10456460;28;20060;-43
2023/10/04 19:10:57;;;;;;;1.23;1.05;;;;;;;10.88;92.61;99714.97;10436692;28;20041;-35
2023/10/04 19:15:59;;;;;;;1.10;0.80;;;;;;;11.44;89.34;99727.50;10440344;28;20037;-35
2023/10/04 19:21:07;;;;;;;2.28;1.23;;;;;;;11.57;85.63;99723.91;10455713;22;20045;-43
2023/10/04 19:26:10;;;;;;;1.92;1.05;;;;;;;11.41;86.29;99728.13;10523752;28;20143;-43
2023/10/04 19:31:13;;;;;;;1.02;0.80;;;;;;;11.27;85.76;99716.34;10521006;28;20036;-42
2023/10/04 19:36:16;;;;;;;2.90;1.27;;;;;;;11.32;84.83;99717.06;10514647;22;20512;-33
2023/10/04 19:41:19;;;;;;;2.35;1.00;;;;;;;11.43;85.00;99707.47;10429018;28;20560;-33
2023/10/04 19:46:23;;;;;;;2.22;1.13;;;;;;;11.42;83.96;99713.28;10429599;28;20037;-36
2023/10/04 19:51:26;;;;;;;3.33;1.30;;;;;;;10.85;85.49;99705.44;10440830;22;20065;-45
2023/10/04 19:56:29;;;;;;;2.25;1.00;;;;;;;11.09;86.79;99699.69;10471852;28;20052;-46
2023/10/04 20:01:31;;;;;;;2.28;1.05;;;;;;;11.36;84.89;99704.34;10475648;28;20041;-47
2023/10/04 20:06:34;;;;;;;1.77;1.25;;;;;;;10.99;83.70;99707.38;10476049;22;20436;-39
2023/10/04 20:11:36;;;;;;;2.60;1.52;;;;;;;10.62;84.90;99706.47;10438911;28;20048;-38
2023/10/04 20:16:38;;;;;;;2.15;1.38;;;;;;;10.40;86.51;99712.63;10437048;28;20128;-39
2023/10/04 20:21:40;;;;;;;2.67;1.20;;;;;;;10.52;87.29;99704.72;10454694;23;20512;-35
2023/10/04 20:26:42;;;;;;;3.88;1.30;;;;;;;10.86;84.90;99695.25;10427182;28;20428;-39
2023/10/04 20:31:45;;;;;;;3.05;1.15;;;;;;;10.45;85.67;99701.56;10428186;28;20038;-35
2023/10/04 20:36:47;;;;;;;0.90;0.70;;;;;;;10.74;85.71;99708.69;10456643;22;20428;-36
2023/10/04 20:41:50;;;;;;;0.90;0.70;;;;;;;10.46;84.90;99705.94;10445909;28;20456;-35
2023/10/04 20:46:52;;;;;;;2.53;1.33;;;;;;;10.71;85.21;99710.09;10427639;28;20041;-35
2023/10/04 20:51:56;;;;;;;2.58;1.27;;;;;;;11.11;83.84;99704.91;10435182;22;20060;-35
2023/10/04 20:56:59;;;;;;;2.35;1.40;;;;;;;11.25;82.69;99696.63;10480984;28;20040;-35
2023/10/04 21:02:01;;;;;;;3.92;1.67;;;;;;;10.67;84.44;99711.03;10482111;28;20049;-35
2023/10/04 21:07:03;;;;;;;3.08;1.75;;;;;;;10.92;84.06;99710.50;10497285;22;20049;-46
2023/10/04 21:12:07;;;;;;;5.53;1.98;;;;;;;11.10;82.29;99698.59;10489172;28;20041;-45
2023/10/04 21:17:09;;;;;;;4.32;1.25;;;;;;;11.40;82.40;99708.09;10488357;28;20627;-45
2023/10/04 21:22:12;;;;;;;3.03;1.80;;;;;;;11.29;81.85;99703.16;10481093;28;20041;-47
2023/10/04 21:27:22;;;;;;;4.00;1.67;;;;;;;11.24;82.42;99703.25;10479424;28;20052;-45
2023/10/04 21:32:36;;;;;;;2.95;1.20;;;;;;;11.82;80.29;99694.25;10482857;28;20033;-49
2023/10/04 21:37:40;;;;;;;2.13;1.20;;;;;;;11.83;80.30;99682.94;10483811;22;20057;-50
2023/10/04 21:42:45;;;;;;;2.13;1.20;;;;;;;11.76;80.58;99690.75;10439515;28;20045;-51
2023/10/04 21:47:50;;;;;;;1.92;1.17;;;;;;;11.87;80.24;99696.88;10442774;28;20041;-51
2023/10/04 21:52:52;;;;;;;2.38;1.70;;;;;;;11.62;80.57;99701.00;10453607;22;20060;-34
2023/10/04 21:57:54;;;;;;;2.90;1.30;;;;;;;11.36;83.07;99703.53;10441298;28;20436;-34
2023/10/04 22:02:57;;;;;;;2.38;1.50;;;;;;;11.42;83.40;99702.28;10438970;28;20033;-34
2023/10/04 22:08:00;;;;;;;1.83;1.30;;;;;;;11.24;83.82;99711.47;10505007;23;20056;-46
2023/10/04 22:13:02;;;;;;;2.22;0.90;;;;;;;11.34;83.85;99703.03;10513427;28;20118;-46
2023/10/04 22:18:04;;;;;;;2.38;1.23;;;;;;;11.22;85.17;99705.50;10523903;28;20056;-45
2023/10/04 22:23:09;;;;;;;2.53;1.45;;;;;;;11.14;85.53;99696.88;10529422;22;20052;-46
2023/10/04 22:28:11;;;;;;;3.28;1.20;;;;;;;11.25;85.42;99696.63;10517334;28;20047;-45
2023/10/04 22:33:15;;;;;;;3.67;1.42;;;;;;;11.32;85.59;99697.84;10501732;28;20067;-45
2023/10/04 22:38:18;;;;;;;2.85;1.30;;;;;;;11.45;84.56;99687.94;10427891;22;20104;-35
2023/10/04 22:43:21;;;;;;;3.40;1.20;;;;;;;11.44;84.38;99684.38;10400849;28;20038;-34
2023/10/04 22:48:23;;;;;;;2.33;1.40;;;;;;;11.56;84.23;99667.34;10400209;28;20552;-38
2023/10/04 22:53:25;;;;;;;2.17;1.23;;;;;;;11.32;84.92;99664.88;10476459;23;20068;-46
2023/10/04 22:58:28;;;;;;;1.73;1.15;;;;;;;11.09;85.83;99666.75;10475803;28;20042;-47
2023/10/04 23:03:30;;;;;;;3.67;1.30;;;;;;;11.00;85.98;99665.88;10459746;28;20076;-47
2023/10/04 23:08:33;;;;;;;1.92;1.10;;;;;;;11.04;86.28;99664.13;10455655;22;20060;-46
2023/10/04 23:13:37;;;;;;;1.40;1.08;;;;;;;10.87;86.32;99650.22;10432831;28;20420;-45
2023/10/04 23:18:45;;;;;;;1.40;1.10;;;;;;;10.97;85.21;99647.28;10436605;28;20042;-45
2023/10/04 23:23:51;;;;;;;1.55;1.00;;;;;;;11.29;84.13;99640.81;10425709;22;20084;-45
2023/10/04 23:28:53;;;;;;;2.03;1.15;;;;;;;11.27;84.14;99647.69;10399705;28;20402;-48
2023/10/04 23:33:56;;;;;;;1.00;0.90;;;;;;;11.03;84.54;99637.81;10400422;28;20034;-45
2023/10/04 23:39:00;;;;;;;1.63;1.10;;;;;;;11.27;85.05;99648.50;10431998;23;20050;-47
2023/10/04 23:44:03;;;;;;;1.35;0.90;;;;;;;11.37;85.10;99640.03;10439037;28;20060;-44